sensor_id;sensor_type;location;lat;lon;timestamp;pressure;altitude;pressure_sealevel;temperature;humidity
56070;BME280;41944;52.078;-0.058;2022-12-18T00:01:15;102043.35;;;-0.52;100.00
56070;BME280;41944;52.078;-0.058;2022-12-18T00:03:44;102057.36;;;-0.68;100.00
56070;BME280;41944;52.078;-0.058;2022-12-18T00:06:11;102060.56;;;-0.81;100.00
56070;BME280;41944;52.078;-0.058;2022-12-18T00:08:39;102059.59;;;-0.81;100.00
56070;BME280;41944;52.078;-0.058;2022-12-18T00:11:07;102054.63;;;-0.82;100.00
56070;BME280;41944;52.078;-0.058;2022-12-18T00:13:35;102050.42;;;-1.00;100.00
56070;BME280;41944;52.078;-0.058;2022-12-18T00:16:03;102042.27;;;-1.01;100.00
56070;BME280;41944;52.078;-0.058;2022-12-18T00:18:30;102037.19;;;-0.94;100.00
56070;BME280;41944;52.078;-0.058;2022-12-18T00:20:58;102028.24;;;-1.08;100.00
56070;BME280;41944;52.078;-0.058;2022-12-18T00:23:25;102017.71;;;-1.19;100.00
56070;BME280;41944;52.078;-0.058;2022-12-18T00:25:52;102002.95;;;-0.87;100.00
56070;BME280;41944;52.078;-0.058;2022-12-18T00:28:20;102001.24;;;-0.46;100.00
56070;BME280;41944;52.078;-0.058;2022-12-18T00:30:47;102000.97;;;0.06;100.00
56070;BME280;41944;52.078;-0.058;2022-12-18T00:33:14;102003.77;;;0.37;100.00
56070;BME280;41944;52.078;-0.058;2022-12-18T00:35:42;102004.50;;;0.41;100.00
56070;BME280;41944;52.078;-0.058;2022-12-18T00:38:09;102013.36;;;0.43;100.00
56070;BME280;41944;52.078;-0.058;2022-12-18T00:40:36;102014.64;;;0.46;99.91
56070;BME280;41944;52.078;-0.058;2022-12-18T00:43:04;102013.77;;;0.54;99.72
56070;BME280;41944;52.078;-0.058;2022-12-18T00:45:31;102014.10;;;0.62;98.85
56070;BME280;41944;52.078;-0.058;2022-12-18T00:47:58;102011.77;;;0.69;98.44
56070;BME280;41944;52.078;-0.058;2022-12-18T00:50:25;102015.78;;;0.75;97.70
56070;BME280;41944;52.078;-0.058;2022-12-18T00:52:52;102016.56;;;0.33;98.61
56070;BME280;41944;52.078;-0.058;2022-12-18T00:55:19;102017.26;;;0.50;98.41
56070;BME280;41944;52.078;-0.058;2022-12-18T00:57:47;102013.68;;;0.36;98.58
56070;BME280;41944;52.078;-0.058;2022-12-18T01:00:15;102005.78;;;0.08;98.45
56070;BME280;41944;52.078;-0.058;2022-12-18T01:02:42;102006.71;;;-0.19;99.85
56070;BME280;41944;52.078;-0.058;2022-12-18T01:05:11;102004.23;;;0.04;99.75
56070;BME280;41944;52.078;-0.058;2022-12-18T01:07:39;102003.02;;;0.08;99.49
56070;BME280;41944;52.078;-0.058;2022-12-18T01:10:07;101988.60;;;0.32;99.04
56070;BME280;41944;52.078;-0.058;2022-12-18T01:12:35;101981.38;;;0.43;98.27
56070;BME280;41944;52.078;-0.058;2022-12-18T01:15:02;101985.20;;;0.53;97.93
56070;BME280;41944;52.078;-0.058;2022-12-18T01:17:29;101981.14;;;0.61;97.21
56070;BME280;41944;52.078;-0.058;2022-12-18T01:19:56;101983.14;;;0.68;96.62
56070;BME280;41944;52.078;-0.058;2022-12-18T01:22:23;101983.76;;;0.58;97.28
56070;BME280;41944;52.078;-0.058;2022-12-18T01:24:50;101980.50;;;0.21;98.08
56070;BME280;41944;52.078;-0.058;2022-12-18T01:27:17;101977.59;;;0.10;98.69
56070;BME280;41944;52.078;-0.058;2022-12-18T01:29:44;101974.62;;;0.18;98.40
56070;BME280;41944;52.078;-0.058;2022-12-18T01:32:11;101972.07;;;-0.21;99.95
56070;BME280;41944;52.078;-0.058;2022-12-18T01:34:38;101972.63;;;-0.02;100.00
56070;BME280;41944;52.078;-0.058;2022-12-18T01:37:05;101975.04;;;-0.08;99.98
56070;BME280;41944;52.078;-0.058;2022-12-18T01:39:33;101974.05;;;-0.06;99.51
56070;BME280;41944;52.078;-0.058;2022-12-18T01:42:01;101968.14;;;-0.25;100.00
56070;BME280;41944;52.078;-0.058;2022-12-18T01:45:05;101960.84;;;-0.51;100.00
56070;BME280;41944;52.078;-0.058;2022-12-18T01:47:35;101954.18;;;-0.46;100.00
56070;BME280;41944;52.078;-0.058;2022-12-18T01:50:08;101956.23;;;-0.46;100.00
56070;BME280;41944;52.078;-0.058;2022-12-18T01:52:36;101953.76;;;-0.50;100.00
56070;BME280;41944;52.078;-0.058;2022-12-18T01:55:05;101947.38;;;-0.36;100.00
56070;BME280;41944;52.078;-0.058;2022-12-18T01:57:33;101954.41;;;-0.64;100.00
56070;BME280;41944;52.078;-0.058;2022-12-18T02:00:04;101957.52;;;-0.59;100.00
56070;BME280;41944;52.078;-0.058;2022-12-18T02:02:32;101959.18;;;-0.72;100.00
56070;BME280;41944;52.078;-0.058;2022-12-18T02:05:00;101952.55;;;-0.59;100.00
56070;BME280;41944;52.078;-0.058;2022-12-18T02:07:37;101950.30;;;-0.35;100.00
56070;BME280;41944;52.078;-0.058;2022-12-18T02:10:15;101954.05;;;-0.55;100.00
56070;BME280;41944;52.078;-0.058;2022-12-18T02:12:52;101964.21;;;-0.73;100.00
56070;BME280;41944;52.078;-0.058;2022-12-18T02:15:26;101965.76;;;-0.93;100.00
56070;BME280;41944;52.078;-0.058;2022-12-18T02:17:59;101966.05;;;-0.77;100.00
56070;BME280;41944;52.078;-0.058;2022-12-18T02:20:34;101970.36;;;-0.73;100.00
56070;BME280;41944;52.078;-0.058;2022-12-18T02:23:11;101976.72;;;-0.93;100.00
56070;BME280;41944;52.078;-0.058;2022-12-18T02:26:01;101975.01;;;-0.75;100.00
56070;BME280;41944;52.078;-0.058;2022-12-18T02:28:35;101981.43;;;-1.00;100.00
56070;BME280;41944;52.078;-0.058;2022-12-18T02:31:05;101989.43;;;-1.12;100.00
56070;BME280;41944;52.078;-0.058;2022-12-18T02:33:36;101999.85;;;-1.15;100.00
56070;BME280;41944;52.078;-0.058;2022-12-18T02:36:04;101993.48;;;-1.16;100.00
56070;BME280;41944;52.078;-0.058;2022-12-18T02:38:33;101995.25;;;-1.03;100.00
56070;BME280;41944;52.078;-0.058;2022-12-18T02:41:02;101994.43;;;-0.91;100.00
56070;BME280;41944;52.078;-0.058;2022-12-18T02:43:30;101991.98;;;-0.78;100.00
56070;BME280;41944;52.078;-0.058;2022-12-18T02:45:59;101991.90;;;-0.69;100.00
56070;BME280;41944;52.078;-0.058;2022-12-18T02:48:29;101994.40;;;-0.55;100.00
56070;BME280;41944;52.078;-0.058;2022-12-18T02:51:03;101994.02;;;-0.72;100.00
56070;BME280;41944;52.078;-0.058;2022-12-18T02:53:39;101996.50;;;-0.71;100.00
56070;BME280;41944;52.078;-0.058;2022-12-18T02:56:13;102000.59;;;-0.45;100.00
56070;BME280;41944;52.078;-0.058;2022-12-18T02:58:50;102002.26;;;-0.44;99.74
56070;BME280;41944;52.078;-0.058;2022-12-18T03:01:28;102008.15;;;-0.98;100.00
56070;BME280;41944;52.078;-0.058;2022-12-18T03:04:02;102004.96;;;-0.97;100.00
56070;BME280;41944;52.078;-0.058;2022-12-18T03:06:37;102005.84;;;-1.17;100.00
56070;BME280;41944;52.078;-0.058;2022-12-18T03:09:09;102006.43;;;-1.20;100.00
56070;BME280;41944;52.078;-0.058;2022-12-18T03:11:41;102001.25;;;-1.10;100.00
56070;BME280;41944;52.078;-0.058;2022-12-18T03:14:10;102002.60;;;-1.27;100.00
56070;BME280;41944;52.078;-0.058;2022-12-18T03:16:41;101998.77;;;-1.30;100.00
56070;BME280;41944;52.078;-0.058;2022-12-18T03:19:12;102005.50;;;-1.45;100.00
56070;BME280;41944;52.078;-0.058;2022-12-18T03:21:45;102004.65;;;-1.35;100.00
56070;BME280;41944;52.078;-0.058;2022-12-18T03:24:13;101995.52;;;-1.09;100.00
56070;BME280;41944;52.078;-0.058;2022-12-18T03:26:44;101989.70;;;-1.22;100.00
56070;BME280;41944;52.078;-0.058;2022-12-18T03:29:18;101983.37;;;-1.01;100.00
56070;BME280;41944;52.078;-0.058;2022-12-18T03:31:51;101974.85;;;-1.13;100.00
56070;BME280;41944;52.078;-0.058;2022-12-18T03:34:25;101967.31;;;-1.26;100.00
56070;BME280;41944;52.078;-0.058;2022-12-18T03:36:55;101954.93;;;-1.07;100.00
56070;BME280;41944;52.078;-0.058;2022-12-18T03:39:22;101948.94;;;-1.06;100.00
56070;BME280;41944;52.078;-0.058;2022-12-18T03:41:55;101953.96;;;-1.07;100.00
56070;BME280;41944;52.078;-0.058;2022-12-18T03:44:29;101955.58;;;-1.07;100.00
56070;BME280;41944;52.078;-0.058;2022-12-18T03:47:03;101962.07;;;-1.23;100.00
56070;BME280;41944;52.078;-0.058;2022-12-18T03:49:36;101970.59;;;-1.18;100.00
56070;BME280;41944;52.078;-0.058;2022-12-18T03:52:08;101966.61;;;-1.29;100.00
56070;BME280;41944;52.078;-0.058;2022-12-18T03:54:39;101952.42;;;-1.30;100.00
56070;BME280;41944;52.078;-0.058;2022-12-18T03:57:14;101942.80;;;-1.15;100.00
56070;BME280;41944;52.078;-0.058;2022-12-18T03:59:44;101929.01;;;-0.99;100.00
56070;BME280;41944;52.078;-0.058;2022-12-18T04:02:12;101920.08;;;-0.93;100.00
56070;BME280;41944;52.078;-0.058;2022-12-18T04:04:42;101920.88;;;-1.14;100.00
56070;BME280;41944;52.078;-0.058;2022-12-18T04:07:09;101914.38;;;-1.03;100.00
56070;BME280;41944;52.078;-0.058;2022-12-18T04:09:39;101909.43;;;-1.06;100.00
56070;BME280;41944;52.078;-0.058;2022-12-18T04:12:08;101909.51;;;-1.25;100.00
56070;BME280;41944;52.078;-0.058;2022-12-18T04:14:36;101908.74;;;-1.16;100.00
56070;BME280;41944;52.078;-0.058;2022-12-18T04:17:03;101912.87;;;-1.01;100.00
56070;BME280;41944;52.078;-0.058;2022-12-18T04:19:30;101918.56;;;-0.90;100.00
56070;BME280;41944;52.078;-0.058;2022-12-18T04:21:57;101913.35;;;-1.01;100.00
56070;BME280;41944;52.078;-0.058;2022-12-18T04:24:25;101910.84;;;-1.11;100.00
56070;BME280;41944;52.078;-0.058;2022-12-18T04:26:52;101913.28;;;-1.16;100.00
56070;BME280;41944;52.078;-0.058;2022-12-18T04:29:19;101910.42;;;-0.94;100.00
56070;BME280;41944;52.078;-0.058;2022-12-18T04:31:47;101907.26;;;-1.01;100.00
56070;BME280;41944;52.078;-0.058;2022-12-18T04:34:15;101897.03;;;-0.76;100.00
56070;BME280;41944;52.078;-0.058;2022-12-18T04:36:41;101881.85;;;-0.75;100.00
56070;BME280;41944;52.078;-0.058;2022-12-18T04:39:09;101878.50;;;-0.74;100.00
56070;BME280;41944;52.078;-0.058;2022-12-18T04:41:36;101875.67;;;-0.83;100.00
56070;BME280;41944;52.078;-0.058;2022-12-18T04:44:04;101873.81;;;-0.92;100.00
56070;BME280;41944;52.078;-0.058;2022-12-18T04:46:31;101866.61;;;-1.02;100.00
56070;BME280;41944;52.078;-0.058;2022-12-18T04:48:58;101871.52;;;-1.01;100.00
56070;BME280;41944;52.078;-0.058;2022-12-18T04:51:25;101864.42;;;-1.12;100.00
56070;BME280;41944;52.078;-0.058;2022-12-18T04:53:52;101866.35;;;-0.88;100.00
56070;BME280;41944;52.078;-0.058;2022-12-18T04:56:20;101868.39;;;-0.71;100.00
56070;BME280;41944;52.078;-0.058;2022-12-18T04:58:47;101866.35;;;-0.63;100.00
56070;BME280;41944;52.078;-0.058;2022-12-18T05:01:16;101865.30;;;-0.57;100.00
56070;BME280;41944;52.078;-0.058;2022-12-18T05:03:44;101850.36;;;-0.23;100.00
56070;BME280;41944;52.078;-0.058;2022-12-18T05:06:11;101858.16;;;-0.17;100.00
56070;BME280;41944;52.078;-0.058;2022-12-18T05:08:38;101852.24;;;-0.13;100.00
56070;BME280;41944;52.078;-0.058;2022-12-18T05:11:07;101851.23;;;0.07;100.00
56070;BME280;41944;52.078;-0.058;2022-12-18T05:13:36;101847.12;;;0.14;100.00
56070;BME280;41944;52.078;-0.058;2022-12-18T05:16:04;101834.71;;;0.17;100.00
56070;BME280;41944;52.078;-0.058;2022-12-18T05:18:32;101827.90;;;0.29;100.00
56070;BME280;41944;52.078;-0.058;2022-12-18T05:20:59;101811.41;;;0.16;100.00
56070;BME280;41944;52.078;-0.058;2022-12-18T05:23:27;101800.13;;;0.13;100.00
56070;BME280;41944;52.078;-0.058;2022-12-18T05:25:55;101788.64;;;0.28;100.00
56070;BME280;41944;52.078;-0.058;2022-12-18T05:28:24;101776.98;;;0.52;100.00
56070;BME280;41944;52.078;-0.058;2022-12-18T05:30:54;101765.95;;;0.61;100.00
56070;BME280;41944;52.078;-0.058;2022-12-18T05:33:23;101763.73;;;0.75;99.94
56070;BME280;41944;52.078;-0.058;2022-12-18T05:35:51;101756.74;;;0.84;98.86
56070;BME280;41944;52.078;-0.058;2022-12-18T05:38:19;101761.73;;;0.84;98.82
56070;BME280;41944;52.078;-0.058;2022-12-18T05:40:47;101757.51;;;0.79;98.76
56070;BME280;41944;52.078;-0.058;2022-12-18T05:43:14;101757.33;;;0.76;98.43
56070;BME280;41944;52.078;-0.058;2022-12-18T05:45:42;101755.24;;;0.79;98.11
56070;BME280;41944;52.078;-0.058;2022-12-18T05:48:09;101758.45;;;0.77;98.00
56070;BME280;41944;52.078;-0.058;2022-12-18T05:50:38;101765.63;;;0.79;98.17
56070;BME280;41944;52.078;-0.058;2022-12-18T05:53:06;101762.84;;;0.58;99.02
56070;BME280;41944;52.078;-0.058;2022-12-18T05:55:34;101764.30;;;0.68;99.07
56070;BME280;41944;52.078;-0.058;2022-12-18T05:58:02;101766.63;;;0.62;98.80
56070;BME280;41944;52.078;-0.058;2022-12-18T06:00:29;101775.91;;;0.55;98.93
56070;BME280;41944;52.078;-0.058;2022-12-18T06:02:56;101781.64;;;0.41;99.83
56070;BME280;41944;52.078;-0.058;2022-12-18T06:05:23;101789.15;;;0.67;99.78
56070;BME280;41944;52.078;-0.058;2022-12-18T06:07:51;101777.62;;;0.82;98.81
56070;BME280;41944;52.078;-0.058;2022-12-18T06:10:18;101769.74;;;0.79;98.77
56070;BME280;41944;52.078;-0.058;2022-12-18T06:12:46;101765.57;;;0.88;98.28
56070;BME280;41944;52.078;-0.058;2022-12-18T06:15:13;101758.07;;;0.95;97.65
56070;BME280;41944;52.078;-0.058;2022-12-18T06:17:40;101759.66;;;0.97;97.04
56070;BME280;41944;52.078;-0.058;2022-12-18T06:20:08;101761.14;;;0.92;97.16
56070;BME280;41944;52.078;-0.058;2022-12-18T06:22:36;101756.07;;;0.90;97.17
56070;BME280;41944;52.078;-0.058;2022-12-18T06:25:04;101752.67;;;0.93;96.86
56070;BME280;41944;52.078;-0.058;2022-12-18T06:27:32;101752.29;;;0.85;97.11
56070;BME280;41944;52.078;-0.058;2022-12-18T06:29:59;101754.59;;;1.00;97.02
56070;BME280;41944;52.078;-0.058;2022-12-18T06:32:26;101752.87;;;0.95;96.74
56070;BME280;41944;52.078;-0.058;2022-12-18T06:34:53;101752.76;;;1.12;96.62
56070;BME280;41944;52.078;-0.058;2022-12-18T06:37:21;101752.19;;;1.21;95.83
56070;BME280;41944;52.078;-0.058;2022-12-18T06:39:49;101753.02;;;0.96;96.51
56070;BME280;41944;52.078;-0.058;2022-12-18T06:42:16;101746.08;;;1.01;96.87
56070;BME280;41944;52.078;-0.058;2022-12-18T06:44:43;101752.90;;;0.84;97.72
56070;BME280;41944;52.078;-0.058;2022-12-18T06:47:11;101746.82;;;0.98;97.72
56070;BME280;41944;52.078;-0.058;2022-12-18T06:49:37;101737.02;;;0.85;97.86
56070;BME280;41944;52.078;-0.058;2022-12-18T06:52:05;101732.16;;;0.97;97.82
56070;BME280;41944;52.078;-0.058;2022-12-18T06:54:31;101726.69;;;0.97;97.47
56070;BME280;41944;52.078;-0.058;2022-12-18T06:56:58;101715.09;;;0.81;97.73
56070;BME280;41944;52.078;-0.058;2022-12-18T06:59:25;101715.71;;;0.92;97.83
56070;BME280;41944;52.078;-0.058;2022-12-18T07:01:53;101709.43;;;1.00;97.64
56070;BME280;41944;52.078;-0.058;2022-12-18T07:04:19;101708.38;;;0.81;97.75
56070;BME280;41944;52.078;-0.058;2022-12-18T07:06:47;101714.54;;;0.86;98.09
56070;BME280;41944;52.078;-0.058;2022-12-18T07:09:14;101721.21;;;1.06;96.85
56070;BME280;41944;52.078;-0.058;2022-12-18T07:11:41;101726.07;;;0.78;97.85
56070;BME280;41944;52.078;-0.058;2022-12-18T07:14:08;101722.55;;;0.82;98.06
56070;BME280;41944;52.078;-0.058;2022-12-18T07:16:35;101727.42;;;0.74;98.50
56070;BME280;41944;52.078;-0.058;2022-12-18T07:19:01;101727.59;;;0.64;99.06
56070;BME280;41944;52.078;-0.058;2022-12-18T07:21:29;101725.51;;;0.48;99.83
56070;BME280;41944;52.078;-0.058;2022-12-18T07:23:56;101721.63;;;0.46;100.00
56070;BME280;41944;52.078;-0.058;2022-12-18T07:26:23;101720.13;;;0.68;100.00
56070;BME280;41944;52.078;-0.058;2022-12-18T07:28:53;101714.82;;;1.05;98.25
56070;BME280;41944;52.078;-0.058;2022-12-18T07:31:22;101717.16;;;1.05;98.04
56070;BME280;41944;52.078;-0.058;2022-12-18T07:33:49;101707.20;;;1.09;96.71
56070;BME280;41944;52.078;-0.058;2022-12-18T07:36:17;101701.51;;;1.12;95.96
56070;BME280;41944;52.078;-0.058;2022-12-18T07:38:47;101693.77;;;1.20;94.40
56070;BME280;41944;52.078;-0.058;2022-12-18T07:41:14;101680.49;;;1.13;94.93
56070;BME280;41944;52.078;-0.058;2022-12-18T07:43:42;101681.92;;;0.96;95.68
56070;BME280;41944;52.078;-0.058;2022-12-18T07:46:10;101677.40;;;0.82;96.55
56070;BME280;41944;52.078;-0.058;2022-12-18T07:48:37;101669.91;;;0.99;96.45
56070;BME280;41944;52.078;-0.058;2022-12-18T07:51:06;101666.50;;;1.03;95.63
56070;BME280;41944;52.078;-0.058;2022-12-18T07:53:35;101661.22;;;0.97;95.89
56070;BME280;41944;52.078;-0.058;2022-12-18T07:56:05;101658.72;;;1.05;95.68
56070;BME280;41944;52.078;-0.058;2022-12-18T07:58:33;101656.50;;;1.16;94.47
56070;BME280;41944;52.078;-0.058;2022-12-18T08:01:05;101667.88;;;1.01;95.03
56070;BME280;41944;52.078;-0.058;2022-12-18T08:03:32;101659.22;;;1.08;94.99
56070;BME280;41944;52.078;-0.058;2022-12-18T08:06:00;101658.37;;;1.07;94.63
56070;BME280;41944;52.078;-0.058;2022-12-18T08:08:29;101654.23;;;1.29;93.89
56070;BME280;41944;52.078;-0.058;2022-12-18T08:10:56;101653.11;;;1.18;93.81
56070;BME280;41944;52.078;-0.058;2022-12-18T08:13:24;101653.92;;;1.22;93.89
56070;BME280;41944;52.078;-0.058;2022-12-18T08:15:56;101652.15;;;1.35;93.18
56070;BME280;41944;52.078;-0.058;2022-12-18T08:18:24;101646.76;;;1.12;93.75
56070;BME280;41944;52.078;-0.058;2022-12-18T08:20:51;101648.83;;;1.18;94.33
56070;BME280;41944;52.078;-0.058;2022-12-18T08:23:19;101651.97;;;1.39;93.18
56070;BME280;41944;52.078;-0.058;2022-12-18T08:25:47;101649.05;;;1.11;93.68
56070;BME280;41944;52.078;-0.058;2022-12-18T08:28:16;101645.53;;;1.03;94.51
56070;BME280;41944;52.078;-0.058;2022-12-18T08:30:44;101645.61;;;1.16;94.76
56070;BME280;41944;52.078;-0.058;2022-12-18T08:33:10;101644.82;;;1.11;94.39
56070;BME280;41944;52.078;-0.058;2022-12-18T08:35:37;101667.19;;;1.15;94.32
56070;BME280;41944;52.078;-0.058;2022-12-18T08:38:04;101692.76;;;1.11;94.78
56070;BME280;41944;52.078;-0.058;2022-12-18T08:40:31;101671.23;;;1.12;94.88
56070;BME280;41944;52.078;-0.058;2022-12-18T08:42:58;101678.24;;;1.32;94.03
56070;BME280;41944;52.078;-0.058;2022-12-18T08:45:25;101667.50;;;1.33;93.98
56070;BME280;41944;52.078;-0.058;2022-12-18T08:47:53;101662.90;;;1.30;93.39
56070;BME280;41944;52.078;-0.058;2022-12-18T08:50:20;101652.87;;;1.60;92.22
56070;BME280;41944;52.078;-0.058;2022-12-18T08:52:47;101653.12;;;1.55;92.62
56070;BME280;41944;52.078;-0.058;2022-12-18T08:55:14;101636.57;;;1.71;90.62
56070;BME280;41944;52.078;-0.058;2022-12-18T08:57:41;101635.26;;;1.72;90.35
56070;BME280;41944;52.078;-0.058;2022-12-18T09:00:10;101638.15;;;1.89;89.52
56070;BME280;41944;52.078;-0.058;2022-12-18T09:02:37;101637.74;;;1.76;89.89
56070;BME280;41944;52.078;-0.058;2022-12-18T09:05:05;101641.24;;;1.77;89.79
56070;BME280;41944;52.078;-0.058;2022-12-18T09:07:32;101635.98;;;1.71;90.32
56070;BME280;41944;52.078;-0.058;2022-12-18T09:10:00;101633.85;;;1.62;90.95
56070;BME280;41944;52.078;-0.058;2022-12-18T09:12:27;101633.13;;;1.76;89.88
56070;BME280;41944;52.078;-0.058;2022-12-18T09:14:54;101617.45;;;1.79;90.02
56070;BME280;41944;52.078;-0.058;2022-12-18T09:17:21;101610.61;;;1.82;89.82
56070;BME280;41944;52.078;-0.058;2022-12-18T09:19:48;101631.29;;;1.87;89.53
56070;BME280;41944;52.078;-0.058;2022-12-18T09:22:15;101644.93;;;1.77;89.77
56070;BME280;41944;52.078;-0.058;2022-12-18T09:24:43;101664.99;;;1.77;90.64
56070;BME280;41944;52.078;-0.058;2022-12-18T09:27:10;101652.08;;;1.68;91.38
56070;BME280;41944;52.078;-0.058;2022-12-18T09:29:37;101633.17;;;1.73;90.99
56070;BME280;41944;52.078;-0.058;2022-12-18T09:32:04;101620.32;;;1.94;88.90
56070;BME280;41944;52.078;-0.058;2022-12-18T09:34:31;101624.44;;;1.79;89.64
56070;BME280;41944;52.078;-0.058;2022-12-18T09:36:58;101617.77;;;1.91;89.62
56070;BME280;41944;52.078;-0.058;2022-12-18T09:39:25;101639.90;;;1.85;89.81
56070;BME280;41944;52.078;-0.058;2022-12-18T09:41:54;101647.50;;;1.96;90.06
56070;BME280;41944;52.078;-0.058;2022-12-18T09:44:25;101628.38;;;1.78;90.37
56070;BME280;41944;52.078;-0.058;2022-12-18T09:47:00;101609.61;;;1.92;90.08
56070;BME280;41944;52.078;-0.058;2022-12-18T09:49:32;101606.63;;;2.06;89.26
56070;BME280;41944;52.078;-0.058;2022-12-18T09:52:04;101623.93;;;2.12;88.49
56070;BME280;41944;52.078;-0.058;2022-12-18T09:54:34;101626.04;;;2.07;89.07
56070;BME280;41944;52.078;-0.058;2022-12-18T09:57:03;101615.48;;;2.14;88.80
56070;BME280;41944;52.078;-0.058;2022-12-18T09:59:34;101620.33;;;2.02;88.53
56070;BME280;41944;52.078;-0.058;2022-12-18T10:02:14;101625.21;;;2.08;88.69
56070;BME280;41944;52.078;-0.058;2022-12-18T10:04:41;101627.37;;;2.17;88.49
56070;BME280;41944;52.078;-0.058;2022-12-18T10:07:13;101631.89;;;2.24;87.76
56070;BME280;41944;52.078;-0.058;2022-12-18T10:09:46;101637.80;;;2.29;86.74
56070;BME280;41944;52.078;-0.058;2022-12-18T10:12:23;101645.30;;;2.26;87.24
56070;BME280;41944;52.078;-0.058;2022-12-18T10:14:56;101628.72;;;2.17;88.12
56070;BME280;41944;52.078;-0.058;2022-12-18T10:17:33;101621.22;;;2.23;88.26
56070;BME280;41944;52.078;-0.058;2022-12-18T10:20:11;101618.83;;;2.31;87.64
56070;BME280;41944;52.078;-0.058;2022-12-18T10:22:47;101617.48;;;2.44;86.92
56070;BME280;41944;52.078;-0.058;2022-12-18T10:25:21;101617.13;;;2.50;86.44
56070;BME280;41944;52.078;-0.058;2022-12-18T10:27:53;101620.37;;;2.48;85.83
56070;BME280;41944;52.078;-0.058;2022-12-18T10:30:23;101617.10;;;2.69;84.87
56070;BME280;41944;52.078;-0.058;2022-12-18T10:32:51;101590.96;;;2.67;84.61
56070;BME280;41944;52.078;-0.058;2022-12-18T10:35:21;101568.53;;;2.65;85.25
56070;BME280;41944;52.078;-0.058;2022-12-18T10:38:06;101561.79;;;2.73;85.38
56070;BME280;41944;52.078;-0.058;2022-12-18T10:40:52;101544.20;;;2.54;86.06
56070;BME280;41944;52.078;-0.058;2022-12-18T10:43:23;101550.64;;;2.60;86.01
56070;BME280;41944;52.078;-0.058;2022-12-18T10:46:01;101548.58;;;2.64;86.37
56070;BME280;41944;52.078;-0.058;2022-12-18T10:48:30;101541.79;;;2.55;86.47
56070;BME280;41944;52.078;-0.058;2022-12-18T10:50:58;101534.14;;;2.54;87.08
56070;BME280;41944;52.078;-0.058;2022-12-18T10:53:28;101527.78;;;2.62;86.28
56070;BME280;41944;52.078;-0.058;2022-12-18T10:55:58;101526.97;;;2.47;87.98
56070;BME280;41944;52.078;-0.058;2022-12-18T10:58:27;101537.79;;;2.49;88.28
56070;BME280;41944;52.078;-0.058;2022-12-18T11:01:05;101532.15;;;2.79;86.36
56070;BME280;41944;52.078;-0.058;2022-12-18T11:03:36;101523.42;;;2.94;85.52
56070;BME280;41944;52.078;-0.058;2022-12-18T11:06:06;101517.67;;;3.07;84.49
56070;BME280;41944;52.078;-0.058;2022-12-18T11:08:33;101512.22;;;2.82;86.03
56070;BME280;41944;52.078;-0.058;2022-12-18T11:11:01;101503.98;;;2.92;86.12
56070;BME280;41944;52.078;-0.058;2022-12-18T11:13:30;101504.03;;;2.99;85.43
56070;BME280;41944;52.078;-0.058;2022-12-18T11:15:58;101499.52;;;2.94;85.97
56070;BME280;41944;52.078;-0.058;2022-12-18T11:18:28;101495.27;;;3.14;84.99
56070;BME280;41944;52.078;-0.058;2022-12-18T11:20:59;101492.09;;;3.09;84.77
56070;BME280;41944;52.078;-0.058;2022-12-18T11:23:27;101490.90;;;3.00;85.79
56070;BME280;41944;52.078;-0.058;2022-12-18T11:25:57;101487.02;;;3.14;84.59
56070;BME280;41944;52.078;-0.058;2022-12-18T11:28:29;101486.83;;;3.19;84.19
56070;BME280;41944;52.078;-0.058;2022-12-18T11:31:20;101470.57;;;3.00;85.65
56070;BME280;41944;52.078;-0.058;2022-12-18T11:33:54;101459.30;;;3.10;85.35
56070;BME280;41944;52.078;-0.058;2022-12-18T11:36:23;101451.36;;;3.04;85.51
56070;BME280;41944;52.078;-0.058;2022-12-18T11:38:54;101442.11;;;2.94;86.22
56070;BME280;41944;52.078;-0.058;2022-12-18T11:41:25;101435.88;;;3.02;86.32
56070;BME280;41944;52.078;-0.058;2022-12-18T11:43:58;101428.56;;;3.12;85.98
56070;BME280;41944;52.078;-0.058;2022-12-18T11:46:32;101427.18;;;3.02;86.56
56070;BME280;41944;52.078;-0.058;2022-12-18T11:49:06;101421.67;;;3.01;86.96
56070;BME280;41944;52.078;-0.058;2022-12-18T11:51:37;101408.94;;;3.06;86.52
56070;BME280;41944;52.078;-0.058;2022-12-18T11:54:13;101392.46;;;3.04;86.79
56070;BME280;41944;52.078;-0.058;2022-12-18T11:56:45;101381.24;;;2.99;87.30
56070;BME280;41944;52.078;-0.058;2022-12-18T11:59:21;101368.20;;;2.97;87.61
56070;BME280;41944;52.078;-0.058;2022-12-18T12:01:52;101366.60;;;2.94;87.99
56070;BME280;41944;52.078;-0.058;2022-12-18T12:06:39;101351.76;;;3.03;87.24
56070;BME280;41944;52.078;-0.058;2022-12-18T12:09:15;101346.46;;;3.10;87.46
56070;BME280;41944;52.078;-0.058;2022-12-18T12:11:52;101329.72;;;3.21;86.67
56070;BME280;41944;52.078;-0.058;2022-12-18T12:14:31;101325.33;;;3.23;86.44
56070;BME280;41944;52.078;-0.058;2022-12-18T12:17:05;101330.96;;;3.16;86.69
56070;BME280;41944;52.078;-0.058;2022-12-18T12:19:41;101340.98;;;3.15;86.86
56070;BME280;41944;52.078;-0.058;2022-12-18T12:22:19;101358.67;;;3.18;86.78
56070;BME280;41944;52.078;-0.058;2022-12-18T12:25:00;101362.84;;;3.18;87.12
56070;BME280;41944;52.078;-0.058;2022-12-18T12:27:36;101351.37;;;3.24;86.99
56070;BME280;41944;52.078;-0.058;2022-12-18T12:30:10;101345.36;;;3.10;87.66
56070;BME280;41944;52.078;-0.058;2022-12-18T12:32:50;101329.84;;;3.23;87.20
56070;BME280;41944;52.078;-0.058;2022-12-18T12:35:31;101320.12;;;3.19;87.29
56070;BME280;41944;52.078;-0.058;2022-12-18T12:38:08;101311.31;;;3.13;87.52
56070;BME280;41944;52.078;-0.058;2022-12-18T12:40:41;101296.86;;;3.06;88.23
56070;BME280;41944;52.078;-0.058;2022-12-18T12:43:21;101291.83;;;3.07;88.27
56070;BME280;41944;52.078;-0.058;2022-12-18T12:45:52;101286.10;;;3.15;87.92
56070;BME280;41944;52.078;-0.058;2022-12-18T12:48:30;101282.58;;;3.13;88.05
56070;BME280;41944;52.078;-0.058;2022-12-18T12:51:00;101272.81;;;3.09;88.27
56070;BME280;41944;52.078;-0.058;2022-12-18T12:53:32;101276.70;;;3.08;88.55
56070;BME280;41944;52.078;-0.058;2022-12-18T12:56:01;101269.97;;;2.96;89.11
56070;BME280;41944;52.078;-0.058;2022-12-18T12:58:38;101253.88;;;3.02;89.31